Time;durP1;ratioP1;P1;durP2;ratioP2;P2;SDS_P1;SDS_P2;PMS_P1;PMS_P2;Temp;Humidity;BMP_temperature;BMP_pressure;BME280_temperature;BME280_humidity;BME280_pressure;Samples;Min_cycle;Max_cycle;Signal;HPM_P1;HPM_P2
2022/11/05 00:09:32;;;;;;;;;;;;;;;8.71;100.00;98859.59;5007346;28;20048;-80
2022/11/05 00:17:32;;;;;;;;;;;;;;;8.95;100.00;98865.44;4997925;28;19940;-80
2022/11/05 00:19:57;;;;;;;;;;;;;;;8.86;100.00;98861.34;5002762;28;19967;-80
2022/11/05 00:25:13;;;;;;;;;;;;;;;8.97;100.00;98857.41;5004004;28;20394;-81
2022/11/05 00:27:39;;;;;;;;;;;;;;;8.95;100.00;98854.97;5001098;28;19940;-81
2022/11/05 00:30:05;;;;;;;;;;;;;;;8.92;100.00;98844.88;5002120;28;20360;-81
2022/11/05 00:32:32;;;;;;;;;;;;;;;8.93;100.00;98845.69;5003819;28;19949;-80
2022/11/05 00:34:58;;;;;;;;;;;;;;;8.97;100.00;98844.31;5001586;28;19913;-80
2022/11/05 00:37:25;;;;;;;;;;;;;;;9.08;100.00;98832.53;5001753;28;19968;-81
2022/11/05 00:39:51;;;;;;;;;;;;;;;9.21;100.00;98837.84;5008309;28;19956;-81
2022/11/05 00:45:00;;;;;;;;;;;;;;;9.13;100.00;98830.94;5000483;28;19917;-81
2022/11/05 00:50:10;;;;;;;;;;;;;;;9.33;100.00;98822.41;5046060;28;19916;-81
2022/11/05 00:52:54;;;;;;;;;;;;;;;9.39;100.00;98826.09;5033229;28;20262;-81
2022/11/05 00:55:23;;;;;;;;;;;;;;;9.21;100.00;98822.13;5044104;28;19939;-81
2022/11/05 00:57:49;;;;;;;;;;;;;;;9.21;100.00;98821.34;5027270;28;19912;-81
2022/11/05 01:00:14;;;;;;;;;;;;;;;8.95;100.00;98813.09;5020503;28;19913;-80
2022/11/05 01:02:40;;;;;;;;;;;;;;;8.98;100.00;98804.06;5049825;28;20282;-81
2022/11/05 01:05:06;;;;;;;;;;;;;;;9.06;100.00;98808.34;5034945;28;19920;-81
2022/11/05 01:07:32;;;;;;;;;;;;;;;9.06;100.00;98808.34;5054664;28;20412;-80
2022/11/05 01:09:57;;;;;;;;;;;;;;;9.23;100.00;98804.41;5054245;28;20326;-81
2022/11/05 01:12:25;;;;;;;;;;;;;;;9.25;100.00;98810.31;5046514;28;19927;-81
2022/11/05 01:14:51;;;;;;;;;;;;;;;9.21;100.00;98814.28;5053389;28;19913;-81
2022/11/05 01:17:18;;;;;;;;;;;;;;;9.19;100.00;98824.13;5050446;28;19909;-80
2022/11/05 01:19:43;;;;;;;;;;;;;;;9.00;100.00;98830.84;5053412;28;19975;-82
2022/11/05 01:22:08;;;;;;;;;;;;;;;9.17;100.00;98841.06;5051184;28;19921;-81
2022/11/05 01:24:34;;;;;;;;;;;;;;;9.23;100.00;98835.84;5037865;28;20436;-81
2022/11/05 01:26:59;;;;;;;;;;;;;;;9.20;100.00;98844.09;5039573;28;20360;-81
2022/11/05 01:29:24;;;;;;;;;;;;;;;9.14;100.00;98837.81;5046046;28;19935;-81
2022/11/05 01:31:50;;;;;;;;;;;;;;;9.07;100.00;98831.72;5052973;28;19963;-81
2022/11/05 01:34:16;;;;;;;;;;;;;;;9.08;100.00;98835.16;5054331;28;20390;-82
2022/11/05 01:36:41;;;;;;;;;;;;;;;9.05;100.00;98831.09;5053739;28;19912;-82
2022/11/05 01:39:06;;;;;;;;;;;;;;;9.02;100.00;98822.78;5046983;28;19920;-81
2022/11/05 01:41:32;;;;;;;;;;;;;;;8.98;100.00;98823.19;5059085;28;19919;-81
2022/11/05 01:43:58;;;;;;;;;;;;;;;8.97;100.00;98828.63;5054592;28;20363;-82
2022/11/05 01:46:28;;;;;;;;;;;;;;;8.96;100.00;98827.81;5053627;28;19913;-82
2022/11/05 01:48:55;;;;;;;;;;;;;;;8.93;100.00;98819.50;5055422;28;19924;-81
2022/11/05 01:51:22;;;;;;;;;;;;;;;8.99;100.00;98830.03;5047744;28;19912;-81
2022/11/05 01:53:59;;;;;;;;;;;;;;;8.89;100.00;98829.56;5057496;28;19913;-81
2022/11/05 01:56:31;;;;;;;;;;;;;;;9.00;100.00;98831.66;5043911;28;19948;-81
2022/11/05 01:59:02;;;;;;;;;;;;;;;9.12;100.00;98837.19;5064085;28;19948;-81
2022/11/05 02:01:28;;;;;;;;;;;;;;;9.35;100.00;98830.09;5035937;28;19927;-81
2022/11/05 02:04:00;;;;;;;;;;;;;;;9.33;100.00;98829.47;5051095;28;19916;-82
2022/11/05 02:06:27;;;;;;;;;;;;;;;9.42;100.00;98837.00;5052215;28;19951;-81
2022/11/05 02:08:59;;;;;;;;;;;;;;;9.43;100.00;98835.16;5058413;28;19938;-81
2022/11/05 02:11:24;;;;;;;;;;;;;;;9.31;100.00;98831.47;5058008;28;19959;-81
2022/11/05 02:13:50;;;;;;;;;;;;;;;9.41;100.00;98826.69;5050663;28;20363;-81
2022/11/05 02:16:16;;;;;;;;;;;;;;;9.19;100.00;98825.97;5052043;28;20382;-81
2022/11/05 02:18:55;;;;;;;;;;;;;;;9.40;100.00;98827.69;5050620;28;19912;-81
2022/11/05 02:21:40;;;;;;;;;;;;;;;9.39;100.00;98819.03;5057237;28;19919;-80
2022/11/05 02:24:24;;;;;;;;;;;;;;;9.33;100.00;98819.00;5050359;28;19916;-81
2022/11/05 02:27:15;;;;;;;;;;;;;;;9.24;100.00;98821.78;5060293;28;19966;-81
2022/11/05 02:29:59;;;;;;;;;;;;;;;9.45;100.00;98812.25;5034538;28;19921;-81
2022/11/05 02:32:33;;;;;;;;;;;;;;;9.49;100.00;98808.22;5061372;28;19916;-81
2022/11/05 02:35:14;;;;;;;;;;;;;;;9.47;100.00;98814.66;5044467;28;20373;-81
2022/11/05 02:37:44;;;;;;;;;;;;;;;9.38;100.00;98820.06;5054286;28;19917;-81
2022/11/05 02:40:17;;;;;;;;;;;;;;;9.33;100.00;98814.56;5039368;28;20362;-82
2022/11/05 02:42:51;;;;;;;;;;;;;;;9.34;100.00;98813.59;5050217;28;19993;-81
2022/11/05 02:45:25;;;;;;;;;;;;;;;9.35;100.00;98801.28;5049952;28;19978;-81
2022/11/05 02:47:51;;;;;;;;;;;;;;;9.23;100.00;98795.78;5056753;28;19917;-82
2022/11/05 02:50:18;;;;;;;;;;;;;;;9.31;100.00;98794.81;5051687;28;19921;-81
2022/11/05 02:52:55;;;;;;;;;;;;;;;9.18;100.00;98791.09;5052716;28;19917;-81
2022/11/05 02:55:28;;;;;;;;;;;;;;;9.19;100.00;98790.09;5043134;28;19928;-81
2022/11/05 02:58:02;;;;;;;;;;;;;;;9.14;100.00;98782.84;5045574;28;19967;-82
2022/11/05 03:00:45;;;;;;;;;;;;;;;9.17;100.00;98788.69;5053143;28;19920;-82
2022/11/05 03:03:14;;;;;;;;;;;;;;;9.12;100.00;98786.63;5042980;28;19979;-82
2022/11/05 03:05:49;;;;;;;;;;;;;;;9.06;100.00;98784.78;5040723;28;20365;-82
2022/11/05 03:08:21;;;;;;;;;;;;;;;8.94;100.00;98784.47;5053624;28;19917;-82
2022/11/05 03:10:58;;;;;;;;;;;;;;;8.86;100.00;98788.06;5053890;28;20012;-81
2022/11/05 03:13:34;;;;;;;;;;;;;;;9.11;100.00;98785.00;5045238;28;19978;-82
2022/11/05 03:16:01;;;;;;;;;;;;;;;9.10;100.00;98784.19;5047386;28;19959;-82
2022/11/05 03:18:37;;;;;;;;;;;;;;;8.87;100.00;98779.22;5049690;28;19966;-81
2022/11/05 03:21:10;;;;;;;;;;;;;;;9.14;100.00;98785.44;5041368;28;19962;-81
2022/11/05 03:23:36;;;;;;;;;;;;;;;9.17;100.00;98776.38;5050545;28;19920;-82
2022/11/05 03:26:08;;;;;;;;;;;;;;;9.25;100.00;98773.63;5051496;28;19916;-82
2022/11/05 03:28:36;;;;;;;;;;;;;;;9.20;100.00;98768.13;5052562;28;19916;-81
2022/11/05 03:31:03;;;;;;;;;;;;;;;9.19;100.00;98758.66;5045656;28;20362;-81
2022/11/05 03:33:31;;;;;;;;;;;;;;;9.22;100.00;98765.34;5055013;28;19931;-81
2022/11/05 03:36:00;;;;;;;;;;;;;;;9.22;100.00;98754.88;5057276;28;19921;-81
2022/11/05 03:38:27;;;;;;;;;;;;;;;9.14;100.00;98748.78;5050109;28;19966;-81
2022/11/05 03:40:54;;;;;;;;;;;;;;;9.16;100.00;98755.66;5048815;28;20003;-82
2022/11/05 03:43:21;;;;;;;;;;;;;;;9.20;100.00;98755.06;5044354;28;19967;-81
2022/11/05 03:45:53;;;;;;;;;;;;;;;9.18;100.00;98749.19;5051475;28;20000;-81
2022/11/05 03:48:21;;;;;;;;;;;;;;;9.17;100.00;98750.19;5053932;28;20310;-81
2022/11/05 03:51:11;;;;;;;;;;;;;;;9.12;100.00;98756.00;5048167;28;19912;-82
2022/11/05 03:53:40;;;;;;;;;;;;;;;9.13;100.00;98762.84;5042532;28;19967;-80
2022/11/05 03:56:28;;;;;;;;;;;;;;;9.10;100.00;98757.22;5046735;28;19973;-80
2022/11/05 03:58:54;;;;;;;;;;;;;;;9.05;100.00;98765.63;5057743;28;19912;-80
2022/11/05 04:01:19;;;;;;;;;;;;;;;9.05;100.00;98759.59;5053303;28;19921;-81
2022/11/05 04:03:48;;;;;;;;;;;;;;;9.09;100.00;98750.38;5038346;28;19940;-80
2022/11/05 04:14:35;;;;;;;;;;;;;;;9.03;100.00;98740.63;5057783;28;19934;-81
2022/11/05 04:17:07;;;;;;;;;;;;;;;8.80;100.00;98758.22;5060727;28;19912;-83
2022/11/05 04:25:01;;;;;;;;;;;;;;;8.98;100.00;98739.41;5050465;28;19928;-81
2022/11/05 04:27:27;;;;;;;;;;;;;;;8.93;100.00;98731.31;5057935;28;19912;-81
2022/11/05 04:32:36;;;;;;;;;;;;;;;8.77;100.00;98731.59;5060125;28;20029;-82
2022/11/05 04:35:01;;;;;;;;;;;;;;;8.83;100.00;98730.84;5054677;28;20367;-81
2022/11/05 04:37:27;;;;;;;;;;;;;;;8.86;100.00;98733.09;5054403;28;20076;-80
2022/11/05 04:39:52;;;;;;;;;;;;;;;8.96;100.00;98735.38;5045329;28;19959;-81
2022/11/05 04:42:18;;;;;;;;;;;;;;;8.88;100.00;98738.94;5052421;28;19912;-81
2022/11/05 04:44:43;;;;;;;;;;;;;;;8.99;100.00;98733.16;5040306;28;19917;-81
2022/11/05 04:47:09;;;;;;;;;;;;;;;9.05;100.00;98728.19;5046606;28;19916;-81
2022/11/05 04:49:34;;;;;;;;;;;;;;;8.99;100.00;98730.56;5042268;28;20306;-82
2022/11/05 04:51:59;;;;;;;;;;;;;;;9.00;100.00;98731.38;5046490;28;19943;-81
2022/11/05 04:54:25;;;;;;;;;;;;;;;8.96;100.00;98725.69;5054226;28;19920;-81
2022/11/05 04:56:52;;;;;;;;;;;;;;;8.96;100.00;98728.31;5049787;28;19921;-81
2022/11/05 04:59:17;;;;;;;;;;;;;;;9.15;100.00;98731.25;5036026;28;19939;-81
2022/11/05 05:01:42;;;;;;;;;;;;;;;9.22;100.00;98729.47;5045040;28;20006;-81
2022/11/05 05:04:08;;;;;;;;;;;;;;;9.02;100.00;98728.56;5041189;28;19923;-81
2022/11/05 05:06:33;;;;;;;;;;;;;;;9.14;100.00;98727.03;5046939;28;20008;-81
2022/11/05 05:08:59;;;;;;;;;;;;;;;9.15;100.00;98718.16;5059482;28;19927;-80
2022/11/05 05:11:24;;;;;;;;;;;;;;;9.14;100.00;98713.94;5058029;28;19920;-80
2022/11/05 05:13:50;;;;;;;;;;;;;;;9.12;100.00;98713.31;5056022;28;19916;-81
2022/11/05 05:16:22;;;;;;;;;;;;;;;8.95;100.00;98708.38;5045569;28;20290;-81
2022/11/05 05:18:48;;;;;;;;;;;;;;;9.12;100.00;98702.84;5044657;28;20318;-81
2022/11/05 05:23:58;;;;;;;;;;;;;;;9.08;100.00;98701.63;5049337;28;19955;-81
2022/11/05 05:26:24;;;;;;;;;;;;;;;9.23;100.00;98698.88;5054111;28;19971;-81
2022/11/05 05:28:50;;;;;;;;;;;;;;;9.20;100.00;98694.81;5053244;28;20350;-81
2022/11/05 05:31:16;;;;;;;;;;;;;;;9.31;100.00;98697.91;5038829;28;19909;-81
2022/11/05 05:33:42;;;;;;;;;;;;;;;9.36;100.00;98690.25;5054516;28;20003;-81
2022/11/05 05:36:07;;;;;;;;;;;;;;;9.34;100.00;98689.66;5053132;28;19920;-80
2022/11/05 05:38:33;;;;;;;;;;;;;;;9.33;100.00;98677.56;5038303;28;19923;-82
2022/11/05 05:40:59;;;;;;;;;;;;;;;9.44;100.00;98674.41;5036683;28;20290;-81
2022/11/05 05:43:29;;;;;;;;;;;;;;;9.33;100.00;98667.09;5035582;28;19923;-81
2022/11/05 05:45:56;;;;;;;;;;;;;;;9.41;100.00;98677.38;5027718;28;19912;-82
2022/11/05 05:48:21;;;;;;;;;;;;;;;9.47;100.00;98681.84;5057526;28;20278;-81
2022/11/05 05:50:46;;;;;;;;;;;;;;;9.56;100.00;98677.25;5053499;28;19920;-81
2022/11/05 05:53:12;;;;;;;;;;;;;;;9.49;100.00;98682.47;5049484;28;19913;-81
2022/11/05 05:55:37;;;;;;;;;;;;;;;9.51;100.00;98685.69;5047661;28;19912;-81
2022/11/05 05:58:03;;;;;;;;;;;;;;;9.45;100.00;98681.25;5041467;28;19944;-81
2022/11/05 06:00:28;;;;;;;;;;;;;;;9.35;100.00;98680.78;5057444;28;19970;-81
2022/11/05 06:02:54;;;;;;;;;;;;;;;9.51;100.00;98688.31;5046369;28;19913;-81
2022/11/05 06:05:19;;;;;;;;;;;;;;;9.48;100.00;98680.84;5040195;28;20374;-81
2022/11/05 06:07:45;;;;;;;;;;;;;;;9.62;100.00;98683.50;5039365;28;19912;-81
2022/11/05 06:10:10;;;;;;;;;;;;;;;9.69;100.00;98681.72;5049461;28;19916;-80
2022/11/05 06:12:35;;;;;;;;;;;;;;;9.67;100.00;98679.28;5039312;28;20386;-82
2022/11/05 06:15:01;;;;;;;;;;;;;;;9.72;100.00;98683.94;5042642;28;19920;-81
2022/11/05 06:17:26;;;;;;;;;;;;;;;9.76;100.00;98676.50;5051535;28;19928;-81
2022/11/05 06:19:52;;;;;;;;;;;;;;;9.60;100.00;98672.41;5055974;28;19920;-81
2022/11/05 06:22:18;;;;;;;;;;;;;;;9.81;100.00;98677.50;5062312;28;19962;-81
2022/11/05 06:24:43;;;;;;;;;;;;;;;9.76;100.00;98674.66;5033699;28;20004;-81
2022/11/05 06:27:08;;;;;;;;;;;;;;;9.81;100.00;98671.47;5040937;28;19913;-81
2022/11/05 06:29:34;;;;;;;;;;;;;;;9.81;100.00;98664.38;5056879;28;19912;-81
2022/11/05 06:32:00;;;;;;;;;;;;;;;9.83;100.00;98651.91;5055235;28;20366;-81
2022/11/05 06:34:25;;;;;;;;;;;;;;;9.74;100.00;98658.34;5056798;28;19917;-82
2022/11/05 06:36:50;;;;;;;;;;;;;;;9.70;100.00;98659.75;5049635;28;19913;-82
2022/11/05 06:39:16;;;;;;;;;;;;;;;9.69;100.00;98639.78;5056960;28;19912;-81
2022/11/05 06:41:43;;;;;;;;;;;;;;;9.71;100.00;98637.78;5050042;28;20282;-81
2022/11/05 06:44:09;;;;;;;;;;;;;;;9.62;100.00;98649.44;5057835;28;20003;-81
2022/11/05 06:46:34;;;;;;;;;;;;;;;9.66;100.00;98650.66;5054702;28;20026;-82
2022/11/05 06:48:59;;;;;;;;;;;;;;;9.56;100.00;98646.59;5052476;28;19914;-82
2022/11/05 06:51:25;;;;;;;;;;;;;;;9.58;100.00;98641.97;5048216;28;20386;-82
2022/11/05 06:53:51;;;;;;;;;;;;;;;9.54;100.00;98634.72;5044529;28;19936;-82
2022/11/05 06:56:17;;;;;;;;;;;;;;;9.40;100.00;98633.84;5043469;28;19940;-81
2022/11/05 06:58:43;;;;;;;;;;;;;;;9.56;100.00;98635.31;5044964;28;19952;-83
2022/11/05 07:01:09;;;;;;;;;;;;;;;9.66;100.00;98627.09;5055832;28;20294;-82
2022/11/05 07:03:35;;;;;;;;;;;;;;;9.60;100.00;98630.47;5043887;28;19917;-81
2022/11/05 07:06:02;;;;;;;;;;;;;;;9.61;100.00;98632.09;5045965;28;20256;-81
2022/11/05 07:08:31;;;;;;;;;;;;;;;9.63;100.00;98624.84;5050572;28;20393;-81
2022/11/05 07:10:57;;;;;;;;;;;;;;;9.70;100.00;98628.28;5053538;28;20354;-81
2022/11/05 07:13:23;;;;;;;;;;;;;;;9.61;100.00;98627.69;5060551;28;20362;-81
2022/11/05 07:15:48;;;;;;;;;;;;;;;9.78;100.00;98628.09;5049952;28;19912;-81
2022/11/05 07:18:14;;;;;;;;;;;;;;;9.77;100.00;98625.69;5049538;28;19955;-81
2022/11/05 07:20:39;;;;;;;;;;;;;;;9.78;100.00;98627.31;5063734;28;19913;-81
2022/11/05 07:23:05;;;;;;;;;;;;;;;9.69;100.00;98629.31;5058377;28;19920;-81
2022/11/05 07:25:32;;;;;;;;;;;;;;;9.80;100.00;98626.09;5050127;28;19919;-80
2022/11/05 07:27:57;;;;;;;;;;;;;;;9.80;100.00;98622.66;5030463;28;19920;-81
2022/11/05 07:30:23;;;;;;;;;;;;;;;9.77;100.00;98628.31;5062288;28;19924;-81
2022/11/05 07:32:49;;;;;;;;;;;;;;;9.86;100.00;98625.31;5047774;28;20392;-81
2022/11/05 07:35:14;;;;;;;;;;;;;;;9.93;100.00;98627.13;5057935;28;19964;-81
2022/11/05 07:37:49;;;;;;;;;;;;;;;9.86;100.00;98625.31;5055284;28;20290;-82
2022/11/05 07:40:22;;;;;;;;;;;;;;;9.84;100.00;98622.06;5051413;28;19917;-81
2022/11/05 07:42:49;;;;;;;;;;;;;;;9.75;100.00;98618.00;5023389;28;19966;-81
2022/11/05 07:45:23;;;;;;;;;;;;;;;9.85;100.00;98610.59;5038616;28;19912;-80
2022/11/05 07:47:50;;;;;;;;;;;;;;;9.73;100.00;98609.56;5024930;28;20400;-80
2022/11/05 07:50:17;;;;;;;;;;;;;;;9.95;100.00;98606.75;5034735;28;20363;-80
2022/11/05 07:52:43;;;;;;;;;;;;;;;9.91;100.00;98603.72;5051693;28;19953;-81
2022/11/05 07:55:10;;;;;;;;;;;;;;;10.04;100.00;98608.19;5053862;28;20013;-83
2022/11/05 07:57:45;;;;;;;;;;;;;;;10.05;100.00;98599.31;5052202;28;19913;-84
2022/11/05 08:00:13;;;;;;;;;;;;;;;10.02;100.00;98597.06;5054979;28;19912;-82
2022/11/05 08:02:39;;;;;;;;;;;;;;;10.10;100.00;98591.63;5020112;28;19924;-83
2022/11/05 08:05:04;;;;;;;;;;;;;;;10.18;100.00;98590.63;5026195;28;20286;-82
2022/11/05 08:07:30;;;;;;;;;;;;;;;10.27;100.00;98594.63;5033977;28;20342;-81
2022/11/05 08:09:55;;;;;;;;;;;;;;;10.27;100.00;98592.00;5030990;28;19986;-84
2022/11/05 08:12:23;;;;;;;;;;;;;;;10.32;100.00;98604.53;5045006;28;19912;-83
2022/11/05 08:14:50;;;;;;;;;;;;;;;10.39;100.00;98602.69;5038765;28;20418;-82
2022/11/05 08:17:22;;;;;;;;;;;;;;;10.28;100.00;98595.44;5031064;28;20325;-82
2022/11/05 08:19:47;;;;;;;;;;;;;;;10.19;100.00;98596.66;5043581;28;19913;-82
2022/11/05 08:22:12;;;;;;;;;;;;;;;10.19;100.00;98607.16;5056114;28;19924;-83
2022/11/05 08:24:38;;;;;;;;;;;;;;;10.33;100.00;98593.00;5031909;28;19924;-81
2022/11/05 08:27:03;;;;;;;;;;;;;;;10.42;100.00;98597.09;5031232;28;20006;-80
2022/11/05 08:32:18;;;;;;;;;;;;;;;10.19;100.00;98581.75;5045253;28;20287;-81
2022/11/05 08:34:43;;;;;;;;;;;;;;;10.37;100.00;98578.47;5051479;28;19969;-82
2022/11/05 08:37:09;;;;;;;;;;;;;;;10.55;100.00;98577.88;5031865;28;19957;-82
2022/11/05 08:39:35;;;;;;;;;;;;;;;10.68;100.00;98571.78;5045105;28;20281;-83
2022/11/05 08:42:01;;;;;;;;;;;;;;;10.53;100.00;98568.59;5050467;28;19913;-81
2022/11/05 08:44:26;;;;;;;;;;;;;;;10.47;100.00;98566.78;5039393;28;19916;-82
2022/11/05 08:46:53;;;;;;;;;;;;;;;10.61;100.00;98552.63;5004782;28;19925;-85
2022/11/05 08:49:20;;;;;;;;;;;;;;;10.50;100.00;98556.69;5009867;28;19913;-86
2022/11/05 08:51:46;;;;;;;;;;;;;;;10.66;100.00;98559.88;5008458;28;19914;-85
2022/11/05 08:54:12;;;;;;;;;;;;;;;10.71;100.00;98565.31;5015980;28;20390;-85
2022/11/05 08:56:38;;;;;;;;;;;;;;;10.79;100.00;98561.63;5020801;28;20363;-84
2022/11/05 08:59:03;;;;;;;;;;;;;;;10.68;100.00;98553.41;4993910;28;19935;-85
2022/11/05 09:01:32;;;;;;;;;;;;;;;10.81;100.00;98554.38;5017305;28;20007;-86
2022/11/05 09:03:58;;;;;;;;;;;;;;;10.78;100.00;98541.66;5010437;28;19964;-85
2022/11/05 09:06:23;;;;;;;;;;;;;;;10.91;100.00;98531.09;5021769;28;19990;-86
2022/11/05 09:08:49;;;;;;;;;;;;;;;10.98;100.00;98539.75;5023284;28;19913;-86
2022/11/05 09:11:15;;;;;;;;;;;;;;;11.13;100.00;98544.75;5021215;28;19928;-85
2022/11/05 09:13:43;;;;;;;;;;;;;;;11.09;100.00;98548.00;5012432;28;19997;-86
2022/11/05 09:16:35;;;;;;;;;;;;;;;11.16;100.00;98525.13;5019477;28;20355;-86
2022/11/05 09:19:03;;;;;;;;;;;;;;;10.95;100.00;98510.50;5012499;28;19913;-87
2022/11/05 09:21:29;;;;;;;;;;;;;;;11.08;100.00;98515.66;4993345;28;19921;-87
2022/11/05 09:23:55;;;;;;;;;;;;;;;11.07;100.00;98505.38;5016140;28;19924;-86
2022/11/05 09:26:21;;;;;;;;;;;;;;;10.80;100.00;98501.06;5035655;28;20326;-86
2022/11/05 09:28:52;;;;;;;;;;;;;;;11.19;100.00;98500.25;5013340;28;19948;-87
2022/11/05 09:31:18;;;;;;;;;;;;;;;11.25;100.00;98502.84;5009602;28;19996;-88
2022/11/05 09:33:43;;;;;;;;;;;;;;;11.07;100.00;98497.50;5020544;28;20353;-87
2022/11/05 09:36:12;;;;;;;;;;;;;;;11.20;100.00;98497.44;5013262;28;19959;-88
2022/11/05 09:38:37;;;;;;;;;;;;;;;11.08;100.00;98491.22;5023081;28;19948;-88
2022/11/05 09:41:05;;;;;;;;;;;;;;;11.29;100.00;98490.88;5015942;28;19963;-89
2022/11/05 09:43:45;;;;;;;;;;;;;;;11.36;100.00;98482.16;5006865;28;19991;-87
2022/11/05 09:46:15;;;;;;;;;;;;;;;11.47;100.00;98491.16;5002554;28;20004;-88
2022/11/05 09:48:41;;;;;;;;;;;;;;;11.45;100.00;98501.91;5035856;28;19984;-89
2022/11/05 09:51:13;;;;;;;;;;;;;;;11.54;100.00;98511.13;5046419;28;20028;-89
2022/11/05 09:53:42;;;;;;;;;;;;;;;11.47;100.00;98513.00;5026190;28;19916;-90
2022/11/05 09:56:36;;;;;;;;;;;;;;;11.56;100.00;98501.19;5039146;28;20007;-88
2022/11/05 09:59:05;;;;;;;;;;;;;;;11.62;100.00;98482.97;5054849;28;20038;-89
2022/11/05 10:01:33;;;;;;;;;;;;;;;11.55;100.00;98483.81;5029163;28;19966;-89
2022/11/05 10:04:00;;;;;;;;;;;;;;;11.47;100.00;98476.22;5039307;28;19917;-88
2022/11/05 10:06:27;;;;;;;;;;;;;;;11.63;100.00;98466.19;5045080;28;19913;-89
2022/11/05 10:09:04;;;;;;;;;;;;;;;11.70;100.00;98474.81;5062824;28;19912;-88
2022/11/05 10:11:54;;;;;;;;;;;;;;;11.60;100.00;98469.25;5045082;28;19913;-88
2022/11/05 10:14:25;;;;;;;;;;;;;;;11.62;100.00;98461.94;5027119;28;19920;-87
2022/11/05 10:16:53;;;;;;;;;;;;;;;11.71;100.00;98460.66;5056097;28;19963;-87
2022/11/05 10:19:23;;;;;;;;;;;;;;;11.57;100.00;98466.00;5047427;28;19928;-88
2022/11/05 10:22:25;;;;;;;;;;;;;;;11.42;100.00;98471.59;5028348;28;20389;-88
2022/11/05 10:24:51;;;;;;;;;;;;;;;11.55;100.00;98465.41;5008740;28;19921;-88
2022/11/05 10:27:32;;;;;;;;;;;;;;;11.71;100.00;98456.22;5040978;28;19920;-86
2022/11/05 10:29:58;;;;;;;;;;;;;;;11.77;100.00;98449.25;5060343;28;20427;-88
2022/11/05 10:32:36;;;;;;;;;;;;;;;11.93;100.00;98440.00;5048207;28;20283;-88
2022/11/05 10:35:04;;;;;;;;;;;;;;;12.05;100.00;98440.13;5052216;28;19959;-89
2022/11/05 10:37:33;;;;;;;;;;;;;;;12.09;100.00;98424.72;5036793;28;20324;-88
2022/11/05 10:39:59;;;;;;;;;;;;;;;12.18;100.00;98430.47;5046883;28;19913;-87
2022/11/05 10:42:42;;;;;;;;;;;;;;;12.23;100.00;98422.72;5059456;28;19920;-88
2022/11/05 10:45:11;;;;;;;;;;;;;;;12.35;100.00;98420.94;5057964;28;19971;-89
2022/11/05 10:47:58;;;;;;;;;;;;;;;12.44;100.00;98413.56;5030186;28;19949;-89
2022/11/05 10:50:26;;;;;;;;;;;;;;;12.47;100.00;98420.22;5030865;28;19951;-88
2022/11/05 10:52:58;;;;;;;;;;;;;;;12.36;100.00;98414.66;5057222;28;19940;-89
2022/11/05 10:55:23;;;;;;;;;;;;;;;12.34;100.00;98406.19;5050510;28;19991;-89
2022/11/05 10:57:49;;;;;;;;;;;;;;;12.25;100.00;98405.69;5051362;28;19963;-88
2022/11/05 11:00:19;;;;;;;;;;;;;;;12.19;100.00;98400.53;5040886;28;19920;-88
2022/11/05 11:02:49;;;;;;;;;;;;;;;12.09;100.00;98388.69;5047930;28;19965;-89
2022/11/05 11:05:20;;;;;;;;;;;;;;;12.19;100.00;98392.63;5056397;28;19917;-89
2022/11/05 11:07:52;;;;;;;;;;;;;;;12.01;100.00;98381.09;5066646;28;19935;-91
2022/11/05 11:10:21;;;;;;;;;;;;;;;11.82;100.00;98381.06;5072021;28;19912;-89
2022/11/05 11:12:48;;;;;;;;;;;;;;;11.84;100.00;98365.88;5046807;28;19913;-92
2022/11/05 11:15:20;;;;;;;;;;;;;;;11.99;100.00;98367.34;5036807;28;19924;-90
2022/11/05 11:17:46;;;;;;;;;;;;;;;11.89;100.00;98364.41;5038131;28;19913;-91
2022/11/05 11:20:25;;;;;;;;;;;;;;;12.06;100.00;98364.63;5029533;28;19935;-92
2022/11/05 11:22:59;;;;;;;;;;;;;;;12.00;100.00;98348.69;5032071;28;20387;-90
2022/11/05 11:25:30;;;;;;;;;;;;;;;11.78;100.00;98363.31;5013643;28;19922;-90
2022/11/05 11:28:00;;;;;;;;;;;;;;;12.10;100.00;98363.97;5016527;28;20438;-90
2022/11/05 11:30:26;;;;;;;;;;;;;;;12.31;100.00;98359.25;5011710;28;19920;-90
2022/11/05 11:32:53;;;;;;;;;;;;;;;12.08;100.00;98365.22;5000004;28;19913;-89
2022/11/05 11:35:25;;;;;;;;;;;;;;;12.13;100.00;98350.38;5001025;28;19917;-91
2022/11/05 11:37:53;;;;;;;;;;;;;;;12.32;100.00;98355.59;4988211;28;19928;-88
2022/11/05 11:40:20;;;;;;;;;;;;;;;11.92;100.00;98354.25;5022079;28;19917;-86
2022/11/05 11:42:47;;;;;;;;;;;;;;;12.37;100.00;98358.38;5025988;28;19913;-86
2022/11/05 11:45:14;;;;;;;;;;;;;;;12.24;100.00;98353.28;5050722;28;20162;-88
2022/11/05 11:47:47;;;;;;;;;;;;;;;12.41;100.00;98354.28;5047758;28;19958;-86
2022/11/05 11:50:33;;;;;;;;;;;;;;;12.16;100.00;98350.94;5034643;28;20432;-88
2022/11/05 11:53:15;;;;;;;;;;;;;;;12.12;100.00;98347.97;5032978;28;19912;-90
2022/11/05 11:55:55;;;;;;;;;;;;;;;12.35;100.00;98338.59;5028788;28;20056;-90
2022/11/05 11:58:21;;;;;;;;;;;;;;;12.20;100.00;98341.63;5030388;28;19912;-91
2022/11/05 12:01:02;;;;;;;;;;;;;;;12.31;100.00;98332.94;5019593;28;19965;-89
2022/11/05 12:03:46;;;;;;;;;;;;;;;12.17;100.00;98336.78;5024683;28;19916;-90
2022/11/05 12:06:37;;;;;;;;;;;;;;;12.23;100.00;98330.66;5058330;28;19913;-88
2022/11/05 12:09:08;;;;;;;;;;;;;;;12.23;100.00;98334.06;5040298;28;19912;-91
2022/11/05 12:11:54;;;;;;;;;;;;;;;12.19;100.00;98329.50;5055507;28;20003;-89
2022/11/05 12:14:29;;;;;;;;;;;;;;;12.20;100.00;98315.31;5040147;28;20259;-89
2022/11/05 12:17:00;;;;;;;;;;;;;;;12.25;100.00;98318.84;5047001;28;20358;-89
2022/11/05 12:19:37;;;;;;;;;;;;;;;12.18;100.00;98309.44;5053022;28;19917;-91
2022/11/05 12:22:03;;;;;;;;;;;;;;;12.04;100.00;98309.63;5040321;28;19927;-88
2022/11/05 12:24:40;;;;;;;;;;;;;;;12.04;100.00;98296.47;5029809;28;19916;-88
2022/11/05 12:27:11;;;;;;;;;;;;;;;12.02;100.00;98293.28;5042078;28;20012;-89
2022/11/05 12:29:49;;;;;;;;;;;;;;;12.22;100.00;98292.19;5049099;28;19919;-90
2022/11/05 12:32:21;;;;;;;;;;;;;;;12.09;100.00;98293.97;5052291;28;19919;-91
2022/11/05 12:34:49;;;;;;;;;;;;;;;12.23;100.00;98288.53;5038565;28;19948;-89
2022/11/05 12:37:22;;;;;;;;;;;;;;;12.34;100.00;98290.41;5045213;28;19920;-89
2022/11/05 12:40:26;;;;;;;;;;;;;;;12.25;100.00;98286.50;5033200;28;20305;-91
2022/11/05 12:43:13;;;;;;;;;;;;;;;12.31;100.00;98280.31;4964118;28;19914;-90
2022/11/05 12:45:57;;;;;;;;;;;;;;;12.32;100.00;98281.94;4951521;28;19919;-87
2022/11/05 12:48:44;;;;;;;;;;;;;;;12.29;100.00;98271.84;5026731;28;19959;-84
2022/11/05 12:51:09;;;;;;;;;;;;;;;12.42;100.00;98258.50;5052361;28;19912;-87
2022/11/05 12:53:40;;;;;;;;;;;;;;;12.57;100.00;98241.47;5050469;28;19913;-88
2022/11/05 12:56:12;;;;;;;;;;;;;;;12.74;100.00;98241.59;5051339;28;19913;-89
2022/11/05 12:58:40;;;;;;;;;;;;;;;12.81;100.00;98231.75;5037168;28;20298;-92
2022/11/05 13:01:16;;;;;;;;;;;;;;;12.81;100.00;98220.44;5050744;28;19916;-89
2022/11/05 13:03:53;;;;;;;;;;;;;;;12.89;100.00;98206.91;5055323;28;19942;-90
2022/11/05 13:06:23;;;;;;;;;;;;;;;12.63;100.00;98202.91;5060429;28;19912;-88
2022/11/05 13:08:51;;;;;;;;;;;;;;;12.75;100.00;98192.38;5050030;28;20408;-88
2022/11/05 13:11:32;;;;;;;;;;;;;;;12.77;100.00;98192.94;5062790;28;19916;-89
2022/11/05 13:14:01;;;;;;;;;;;;;;;12.92;100.00;98195.91;5033427;28;19917;-86
2022/11/05 13:16:36;;;;;;;;;;;;;;;12.92;100.00;98189.84;5035253;28;19923;-87
2022/11/05 13:19:05;;;;;;;;;;;;;;;12.80;100.00;98198.56;5042678;28;19952;-87
2022/11/05 13:21:33;;;;;;;;;;;;;;;12.68;100.00;98190.66;5025530;28;19936;-86
2022/11/05 13:24:02;;;;;;;;;;;;;;;12.68;100.00;98179.34;5018245;28;20363;-87
2022/11/05 13:26:47;;;;;;;;;;;;;;;12.60;100.00;98183.13;5050745;28;19961;-86
2022/11/05 13:29:19;;;;;;;;;;;;;;;12.86;100.00;98173.13;5036749;28;19913;-86
2022/11/05 13:32:14;;;;;;;;;;;;;;;12.49;100.00;98160.22;5033689;28;19920;-85
2022/11/05 13:34:43;;;;;;;;;;;;;;;12.75;100.00;98168.66;5028419;28;20428;-90
2022/11/05 13:39:58;;;;;;;;;;;;;;;12.89;100.00;98164.75;5063025;28;19912;-85
2022/11/05 13:42:29;;;;;;;;;;;;;;;12.40;100.00;98160.56;5028629;28;20408;-86